createdAt,value
2018-08-24T00:01:41.814Z,6.97
2018-08-24T00:04:09.945Z,7.10
2018-08-24T00:06:40.600Z,6.63
2018-08-24T00:09:10.821Z,6.27
2018-08-24T00:11:39.191Z,6.93
2018-08-24T00:14:06.731Z,6.00
2018-08-24T00:16:39.362Z,6.53
2018-08-24T00:19:10.064Z,5.93
2018-08-24T00:21:38.044Z,6.37
2018-08-24T00:24:06.416Z,6.70
2018-08-24T00:26:34.115Z,6.70
2018-08-24T00:29:01.751Z,6.80
2018-08-24T00:31:29.547Z,7.20
2018-08-24T00:33:57.193Z,7.00
2018-08-24T00:36:26.024Z,7.00
2018-08-24T00:38:54.164Z,7.00
2018-08-24T00:41:21.862Z,7.60
2018-08-24T00:43:49.739Z,7.17
2018-08-24T00:46:17.564Z,6.40
2018-08-24T00:48:45.544Z,7.10
2018-08-24T00:51:13.316Z,6.57
2018-08-24T00:53:40.879Z,6.80
2018-08-24T00:56:10.524Z,6.90
2018-08-24T00:58:38.654Z,7.00
2018-08-24T01:01:06.973Z,6.90
2018-08-24T01:03:36.699Z,6.70
2018-08-24T01:06:04.638Z,7.40
2018-08-24T01:08:32.305Z,7.37
2018-08-24T01:10:59.961Z,8.30
2018-08-24T01:13:27.626Z,7.73
2018-08-24T01:15:57.369Z,8.40
2018-08-24T01:18:30.851Z,9.10
2018-08-24T01:20:58.878Z,8.33
2018-08-24T01:23:27.915Z,7.83
2018-08-24T01:25:55.503Z,7.70
2018-08-24T01:28:23.243Z,8.00
2018-08-24T01:30:51.012Z,8.33
2018-08-24T01:33:19.180Z,8.17
2018-08-24T01:35:47.471Z,8.47
2018-08-24T01:38:15.147Z,7.67
2018-08-24T01:40:42.783Z,9.13
2018-08-24T01:43:10.902Z,8.00
2018-08-24T01:45:38.764Z,8.63
2018-08-24T01:48:07.160Z,8.20
2018-08-24T01:50:34.759Z,8.30
2018-08-24T01:53:02.404Z,8.83
2018-08-24T01:55:30.191Z,8.60
2018-08-24T01:57:57.916Z,8.93
2018-08-24T02:00:25.563Z,9.27
2018-08-24T02:02:53.353Z,9.40
2018-08-24T02:05:21.059Z,9.03
2018-08-24T02:07:48.651Z,8.73
2018-08-24T02:10:21.910Z,9.53
2018-08-24T02:12:55.612Z,9.03
2018-08-24T02:15:23.363Z,9.23
2018-08-24T02:17:56.600Z,9.50
2018-08-24T02:20:29.987Z,9.33
2018-08-24T02:22:58.844Z,9.53
2018-08-24T02:25:26.853Z,9.83
2018-08-24T02:27:54.774Z,8.97
2018-08-24T02:30:23.160Z,10.43
2018-08-24T02:32:50.944Z,10.27
2018-08-24T02:35:19.640Z,9.60
2018-08-24T02:37:50.153Z,10.87
2018-08-24T02:40:17.943Z,9.97
2018-08-24T02:42:46.403Z,9.70
2018-08-24T02:45:14.143Z,10.10
2018-08-24T02:47:42.165Z,10.60
2018-08-24T02:50:09.939Z,10.90
2018-08-24T02:52:37.570Z,9.27
2018-08-24T02:55:05.376Z,10.17
2018-08-24T02:57:32.935Z,9.83
2018-08-24T03:00:00.720Z,9.73
2018-08-24T03:02:29.078Z,9.50
2018-08-24T03:04:56.795Z,9.20
2018-08-24T03:07:24.722Z,9.60
2018-08-24T03:09:52.380Z,8.67
2018-08-24T03:12:20.055Z,9.83
2018-08-24T03:14:47.855Z,8.70
2018-08-24T03:17:21.329Z,8.93
2018-08-24T03:19:48.938Z,8.70
2018-08-24T03:22:16.679Z,9.33
2018-08-24T03:24:44.952Z,7.90
2018-08-24T03:27:12.568Z,8.60
2018-08-24T03:29:40.080Z,8.23
2018-08-24T03:32:07.804Z,7.87
2018-08-24T03:34:35.489Z,8.17
2018-08-24T03:37:03.070Z,8.17
2018-08-24T03:39:30.668Z,7.80
2018-08-24T03:41:58.284Z,8.10
2018-08-24T03:44:25.974Z,8.93
2018-08-24T03:46:53.923Z,7.20
2018-08-24T03:49:21.640Z,7.80
2018-08-24T03:51:49.216Z,7.37
2018-08-24T03:54:21.973Z,7.60
2018-08-24T03:56:53.604Z,7.20
2018-08-24T03:59:21.603Z,8.13
2018-08-24T04:01:49.312Z,8.37
2018-08-24T04:04:17.032Z,7.80
2018-08-24T04:06:44.884Z,7.57
2018-08-24T04:09:13.176Z,7.30
2018-08-24T04:11:41.003Z,7.20
2018-08-24T04:14:08.728Z,7.70
2018-08-24T04:16:42.150Z,7.47
2018-08-24T04:19:26.816Z,7.20
2018-08-24T04:21:54.935Z,7.17
2018-08-24T04:24:22.915Z,7.30
2018-08-24T04:26:50.894Z,7.43
2018-08-24T04:29:18.536Z,6.83
2018-08-24T04:31:47.479Z,6.73
2018-08-24T04:34:15.172Z,7.00
2018-08-24T04:36:43.648Z,7.00
2018-08-24T04:39:12.278Z,7.57
2018-08-24T04:41:41.532Z,6.80
2018-08-24T04:44:09.760Z,6.93
2018-08-24T04:46:37.932Z,6.83
2018-08-24T04:49:06.015Z,7.33
2018-08-24T04:51:33.893Z,7.27
2018-08-24T04:54:01.956Z,6.87
2018-08-24T04:56:29.952Z,6.90
2018-08-24T04:58:58.115Z,6.90
2018-08-24T05:01:25.913Z,7.03
2018-08-24T05:03:53.549Z,7.03
2018-08-24T05:06:21.344Z,7.17
2018-08-24T05:08:49.028Z,6.70
2018-08-24T05:11:17.236Z,8.07
2018-08-24T05:13:45.272Z,7.50
2018-08-24T05:16:12.999Z,6.57
2018-08-24T05:18:41.268Z,7.40
2018-08-24T05:21:09.500Z,7.00
2018-08-24T05:23:37.184Z,7.00
2018-08-24T05:26:04.994Z,7.10
2018-08-24T05:28:32.539Z,6.50
2018-08-24T05:31:00.340Z,6.97
2018-08-24T05:33:28.037Z,7.00
2018-08-24T05:35:56.400Z,7.27
2018-08-24T05:38:24.267Z,7.10
2018-08-24T05:40:52.020Z,6.30
2018-08-24T05:43:19.782Z,6.53
2018-08-24T05:45:47.434Z,6.73
2018-08-24T05:48:15.018Z,6.00
2018-08-24T05:50:42.852Z,6.57
2018-08-24T05:53:10.531Z,6.03
2018-08-24T05:55:40.085Z,5.67
2018-08-24T05:58:08.628Z,6.17
2018-08-24T06:00:36.578Z,6.70
2018-08-24T06:03:04.628Z,6.40
2018-08-24T06:05:33.091Z,6.17
2018-08-24T06:08:00.759Z,5.97
2018-08-24T06:10:29.238Z,6.43
2018-08-24T06:12:58.448Z,6.93
2018-08-24T06:15:26.232Z,6.33
2018-08-24T06:17:55.214Z,6.00
2018-08-24T06:20:23.415Z,7.23
2018-08-24T06:22:51.477Z,6.77
2018-08-24T06:25:19.584Z,6.87
2018-08-24T06:27:47.290Z,6.30
2018-08-24T06:30:14.955Z,6.73
2018-08-24T06:32:42.962Z,6.70
2018-08-24T06:35:11.748Z,6.40
2018-08-24T06:37:39.340Z,6.20
2018-08-24T06:40:07.590Z,6.43
2018-08-24T06:42:35.352Z,5.90
2018-08-24T06:45:03.329Z,6.13
2018-08-24T06:47:31.197Z,6.20
2018-08-24T06:49:58.700Z,7.67
2018-08-24T06:52:26.652Z,7.03
2018-08-24T06:54:54.727Z,7.13
2018-08-24T06:57:22.387Z,6.73
2018-08-24T06:59:49.926Z,6.77
2018-08-24T07:02:17.627Z,7.23
2018-08-24T07:04:45.271Z,7.33
2018-08-24T07:07:12.807Z,6.33
2018-08-24T07:09:40.596Z,7.20
2018-08-24T07:12:10.052Z,7.40
2018-08-24T07:14:37.985Z,7.17
2018-08-24T07:17:05.709Z,6.70
2018-08-24T07:19:33.302Z,6.90
2018-08-24T07:22:01.120Z,6.70
2018-08-24T07:24:28.776Z,6.67
2018-08-24T07:26:57.103Z,6.63
2018-08-24T07:29:25.048Z,6.40
2018-08-24T07:31:52.759Z,6.93
2018-08-24T07:34:20.496Z,6.97
2018-08-24T07:36:48.230Z,7.07
2018-08-24T07:39:16.106Z,7.90
2018-08-24T07:41:43.835Z,7.50
2018-08-24T07:44:12.068Z,7.53
2018-08-24T07:46:40.125Z,8.03
2018-08-24T07:49:08.412Z,7.33
2018-08-24T07:51:36.913Z,7.10
2018-08-24T07:54:04.705Z,7.33
2018-08-24T07:56:32.376Z,6.80
2018-08-24T07:59:01.344Z,6.80
2018-08-24T08:01:29.619Z,7.50
2018-08-24T08:03:58.641Z,7.13
2018-08-24T08:06:26.369Z,6.30
2018-08-24T08:08:53.917Z,7.20
2018-08-24T08:11:21.679Z,7.10
2018-08-24T08:13:49.476Z,6.50
2018-08-24T08:16:17.269Z,7.43
2018-08-24T08:18:44.853Z,6.60
2018-08-24T08:21:12.476Z,6.90
2018-08-24T08:23:40.135Z,6.50
2018-08-24T08:26:07.899Z,6.23
2018-08-24T08:28:35.904Z,6.40
2018-08-24T08:31:03.690Z,6.50
2018-08-24T08:33:31.305Z,5.83
2018-08-24T08:35:58.991Z,5.90
2018-08-24T08:38:26.840Z,5.93
2018-08-24T08:40:55.247Z,5.33
2018-08-24T08:43:22.932Z,5.83
2018-08-24T08:45:50.869Z,6.10
2018-08-24T08:48:18.659Z,5.70
2018-08-24T08:50:46.320Z,5.33
2018-08-24T08:53:14.188Z,5.23
2018-08-24T08:55:41.876Z,5.60
2018-08-24T08:58:09.480Z,6.17
2018-08-24T09:00:37.228Z,5.40
2018-08-24T09:03:05.710Z,4.87
2018-08-24T09:05:33.544Z,4.67
2018-08-24T09:08:01.229Z,4.67
2018-08-24T09:10:28.869Z,4.87
2018-08-24T09:12:56.825Z,4.40
2018-08-24T09:15:24.489Z,4.57
2018-08-24T09:17:57.773Z,5.27
2018-08-24T09:20:32.011Z,4.60
2018-08-24T09:23:05.261Z,4.33
2018-08-24T09:25:38.529Z,4.60
2018-08-24T09:28:12.169Z,5.30
2018-08-24T09:30:44.252Z,4.80
2018-08-24T09:33:12.552Z,5.37
2018-08-24T09:35:40.204Z,4.80
2018-08-24T09:38:08.046Z,5.17
2018-08-24T09:40:41.186Z,5.00
2018-08-24T09:43:14.460Z,4.80
2018-08-24T09:45:42.144Z,4.53
2018-08-24T09:48:15.445Z,4.53
2018-08-24T09:50:49.931Z,5.07
2018-08-24T09:53:23.219Z,5.80
2018-08-24T09:55:50.797Z,5.50
2018-08-24T09:58:18.500Z,4.70
2018-08-24T10:00:52.076Z,5.23
2018-08-24T10:03:25.257Z,5.23
2018-08-24T10:05:58.497Z,5.63
2018-08-24T10:08:38.589Z,6.50
2018-08-24T10:11:07.684Z,5.83
2018-08-24T10:13:35.479Z,5.20
2018-08-24T10:16:04.493Z,5.33
2018-08-24T10:18:32.305Z,5.50
2018-08-24T10:21:00.012Z,5.87
2018-08-24T10:23:27.705Z,4.80
2018-08-24T10:25:55.420Z,5.50
2018-08-24T10:28:23.238Z,6.60
2018-08-24T10:30:51.293Z,6.17
2018-08-24T10:33:19.337Z,6.70
2018-08-24T10:35:47.110Z,7.10
2018-08-24T10:38:14.711Z,7.53
2018-08-24T10:40:42.478Z,7.43
2018-08-24T10:43:10.179Z,7.27
2018-08-24T10:45:37.827Z,6.90
2018-08-24T10:48:05.518Z,7.67
2018-08-24T10:50:33.397Z,7.40
2018-08-24T10:53:01.203Z,8.20
2018-08-24T10:55:29.484Z,8.33
2018-08-24T10:57:57.547Z,8.30
2018-08-24T11:00:25.311Z,7.73
2018-08-24T11:02:52.904Z,9.00
2018-08-24T11:05:20.754Z,7.80
2018-08-24T11:07:48.697Z,7.60
2018-08-24T11:10:16.584Z,7.87
2018-08-24T11:12:44.280Z,8.60
2018-08-24T11:15:12.047Z,8.80
2018-08-24T11:17:45.430Z,8.97
2018-08-24T11:20:13.178Z,8.50
2018-08-24T11:22:40.760Z,8.80
2018-08-24T11:25:08.364Z,8.60
2018-08-24T11:27:36.159Z,8.70
2018-08-24T11:30:04.012Z,9.00
2018-08-24T11:32:31.932Z,7.97
2018-08-24T11:34:59.544Z,7.77
2018-08-24T11:37:27.111Z,7.20
2018-08-24T11:39:54.731Z,7.20
2018-08-24T11:42:22.428Z,6.70
2018-08-24T11:44:51.005Z,6.20
2018-08-24T11:47:19.463Z,6.50
2018-08-24T11:49:49.244Z,7.37
2018-08-24T11:52:17.738Z,6.50
2018-08-24T11:54:45.573Z,5.90
2018-08-24T11:57:13.268Z,6.50
2018-08-24T11:59:41.281Z,6.83
2018-08-24T12:02:09.360Z,6.83
2018-08-24T12:04:37.041Z,6.00
2018-08-24T12:07:04.637Z,6.40
2018-08-24T12:09:32.615Z,7.17
2018-08-24T12:12:00.360Z,5.90
2018-08-24T12:14:27.951Z,6.07
2018-08-24T12:16:55.668Z,5.60
2018-08-24T12:19:23.509Z,5.20
2018-08-24T12:21:51.344Z,4.50
2018-08-24T12:24:19.122Z,4.80
2018-08-24T12:26:46.800Z,5.93
2018-08-24T12:29:15.800Z,5.10
2018-08-24T12:31:43.542Z,5.20
2018-08-24T12:34:11.335Z,5.13
2018-08-24T12:36:39.744Z,5.00
2018-08-24T12:39:09.544Z,5.40
2018-08-24T12:41:37.400Z,5.20
2018-08-24T12:44:05.248Z,4.17
2018-08-24T12:46:33.008Z,3.70
2018-08-24T12:49:00.950Z,3.90
2018-08-24T12:51:28.909Z,3.30
2018-08-24T12:53:56.677Z,4.00
2018-08-24T12:56:24.451Z,3.60
2018-08-24T12:58:52.851Z,4.30
2018-08-24T13:01:21.036Z,3.87
2018-08-24T13:03:49.496Z,4.70
2018-08-24T13:06:17.809Z,5.40
2018-08-24T13:08:46.365Z,5.73
2018-08-24T13:11:15.461Z,5.20
2018-08-24T13:13:43.079Z,4.70
2018-08-24T13:16:11.540Z,5.27
2018-08-24T13:18:39.895Z,4.73
2018-08-24T13:21:07.787Z,5.60
2018-08-24T13:23:35.753Z,5.00
2018-08-24T13:26:03.519Z,5.50
2018-08-24T13:28:31.927Z,5.67
2018-08-24T13:30:59.805Z,5.50
2018-08-24T13:33:28.077Z,5.53
2018-08-24T13:35:55.875Z,5.77
2018-08-24T13:38:23.674Z,6.30
2018-08-24T13:40:55.956Z,6.37
2018-08-24T13:43:24.834Z,7.07
2018-08-24T13:45:53.288Z,7.40
2018-08-24T13:48:21.584Z,8.13
2018-08-24T13:50:49.271Z,8.23
2018-08-24T13:53:18.142Z,8.93
2018-08-24T13:55:46.180Z,9.80
2018-08-24T13:58:14.082Z,8.87
2018-08-24T14:00:41.777Z,10.30
2018-08-24T14:03:09.571Z,9.30
2018-08-24T14:05:37.317Z,9.70
2018-08-24T14:08:05.712Z,9.63
2018-08-24T14:10:33.556Z,10.00
2018-08-24T14:13:01.513Z,8.97
2018-08-24T14:15:29.992Z,9.30
2018-08-24T14:17:57.586Z,10.83
2018-08-24T14:20:25.250Z,9.03
2018-08-24T14:22:53.112Z,9.97
2018-08-24T14:25:20.865Z,10.77
2018-08-24T14:27:48.636Z,10.90
2018-08-24T14:30:16.715Z,11.00
2018-08-24T14:32:45.146Z,10.20
2018-08-24T14:35:12.811Z,10.70
2018-08-24T14:37:41.600Z,11.03
2018-08-24T14:40:09.400Z,12.37
2018-08-24T14:42:39.865Z,11.40
2018-08-24T14:45:07.756Z,11.30
2018-08-24T14:47:35.567Z,11.70
2018-08-24T14:50:03.753Z,11.40
2018-08-24T14:52:31.488Z,11.60
2018-08-24T14:54:59.486Z,11.67
2018-08-24T14:57:28.645Z,10.60
2018-08-24T14:59:56.380Z,10.90
2018-08-24T15:02:24.103Z,11.60
2018-08-24T15:04:52.060Z,12.20
2018-08-24T15:07:19.723Z,11.43
2018-08-24T15:09:47.525Z,9.80
2018-08-24T15:12:15.068Z,10.57
2018-08-24T15:14:42.835Z,10.53
2018-08-24T15:17:10.705Z,10.67
2018-08-24T15:19:38.701Z,10.23
2018-08-24T15:22:06.592Z,11.37
2018-08-24T15:24:34.476Z,11.20
2018-08-24T15:27:03.052Z,10.17
2018-08-24T15:29:31.233Z,11.13
2018-08-24T15:31:58.929Z,9.30
2018-08-24T15:34:26.623Z,10.53
2018-08-24T15:36:54.282Z,10.90
2018-08-24T15:39:21.904Z,9.70
2018-08-24T15:41:49.811Z,10.77
2018-08-24T15:44:18.084Z,10.10
2018-08-24T15:46:45.955Z,10.10
2018-08-24T15:49:13.613Z,10.30
2018-08-24T15:51:41.918Z,9.30
2018-08-24T15:54:09.745Z,10.17
2018-08-24T15:56:37.464Z,8.60
2018-08-24T15:59:05.241Z,9.40
2018-08-24T16:01:32.877Z,9.23
2018-08-24T16:04:00.629Z,8.80
2018-08-24T16:06:28.375Z,8.27
2018-08-24T16:08:56.069Z,8.90
2018-08-24T16:11:24.448Z,7.93
2018-08-24T16:13:52.169Z,8.80
2018-08-24T16:16:20.012Z,8.57
2018-08-24T16:18:47.684Z,8.47
2018-08-24T16:21:16.001Z,8.50
2018-08-24T16:23:43.739Z,9.20
2018-08-24T16:26:16.932Z,9.40
2018-08-24T16:28:44.588Z,9.30
2018-08-24T16:31:12.405Z,8.73
2018-08-24T16:33:40.058Z,8.50
2018-08-24T16:36:07.664Z,7.63
2018-08-24T16:38:35.259Z,7.70
2018-08-24T16:41:02.820Z,7.63
2018-08-24T16:43:30.452Z,8.10
2018-08-24T16:45:58.301Z,6.70
2018-08-24T16:48:25.917Z,8.50
2018-08-24T16:50:53.556Z,6.80
2018-08-24T16:53:21.868Z,7.80
2018-08-24T16:55:49.741Z,7.77
2018-08-24T16:58:17.419Z,7.70
2018-08-24T17:00:45.080Z,7.50
2018-08-24T17:03:12.824Z,7.90
2018-08-24T17:05:40.409Z,7.83
2018-08-24T17:08:08.193Z,8.27
2018-08-24T17:10:35.817Z,8.00
2018-08-24T17:13:04.254Z,8.30
2018-08-24T17:15:32.588Z,8.77
2018-08-24T17:18:00.179Z,7.90
2018-08-24T17:20:27.836Z,8.83
2018-08-24T17:22:55.749Z,9.23
2018-08-24T17:25:23.481Z,9.13
2018-08-24T17:27:51.169Z,8.70
2018-08-24T17:30:19.563Z,8.93
2018-08-24T17:32:47.224Z,8.50
2018-08-24T17:35:14.849Z,8.80
2018-08-24T17:37:42.608Z,8.40
2018-08-24T17:40:10.412Z,8.60
2018-08-24T17:42:38.274Z,8.03
2018-08-24T17:45:06.318Z,9.23
2018-08-24T17:47:34.001Z,8.13
2018-08-24T17:50:01.727Z,7.63
2018-08-24T17:52:29.308Z,8.10
2018-08-24T17:54:57.007Z,7.03
2018-08-24T17:57:25.380Z,7.93
2018-08-24T17:59:53.069Z,9.00
2018-08-24T18:02:21.413Z,8.30
2018-08-24T18:04:49.160Z,7.83
2018-08-24T18:07:16.919Z,7.70
2018-08-24T18:09:44.508Z,7.73
2018-08-24T18:12:12.100Z,8.17
2018-08-24T18:14:39.962Z,7.53
2018-08-24T18:17:07.765Z,8.77
2018-08-24T18:19:35.480Z,9.03
2018-08-24T18:22:03.087Z,9.27
2018-08-24T18:24:31.117Z,8.50
2018-08-24T18:26:59.370Z,8.20
2018-08-24T18:29:27.687Z,9.40
2018-08-24T18:31:56.807Z,9.10
2018-08-24T18:34:24.583Z,8.93
2018-08-24T18:36:52.359Z,8.20
2018-08-24T18:39:20.016Z,8.67
2018-08-24T18:41:47.697Z,9.00
2018-08-24T18:44:15.464Z,8.87
2018-08-24T18:46:43.225Z,8.83
2018-08-24T18:49:10.895Z,9.07
2018-08-24T18:51:38.550Z,9.30
2018-08-24T18:54:06.975Z,8.83
2018-08-24T18:56:34.666Z,9.10
2018-08-24T18:59:02.824Z,10.27
2018-08-24T19:01:30.435Z,8.67
2018-08-24T19:03:58.077Z,8.70
2018-08-24T19:06:26.264Z,8.70
2018-08-24T19:08:53.831Z,9.47
2018-08-24T19:11:27.102Z,9.03
2018-08-24T19:13:54.922Z,8.63
2018-08-24T19:16:22.544Z,8.63
2018-08-24T19:18:56.008Z,8.57
2018-08-24T19:21:29.232Z,9.10
2018-08-24T19:23:56.936Z,8.60
2018-08-24T19:26:24.921Z,8.60
2018-08-24T19:28:58.360Z,8.20
2018-08-24T19:31:26.980Z,9.10
2018-08-24T19:33:54.940Z,9.00
2018-08-24T19:36:23.865Z,10.00
2018-08-24T19:38:52.971Z,8.43
2018-08-24T19:41:26.672Z,9.90
2018-08-24T19:43:54.451Z,8.97
2018-08-24T19:46:22.839Z,9.23
2018-08-24T19:48:56.648Z,8.47
2018-08-24T19:51:24.888Z,8.73
2018-08-24T19:53:53.268Z,8.37
2018-08-24T19:56:21.139Z,8.87
2018-08-24T19:59:01.179Z,7.43
2018-08-24T20:01:29.281Z,8.83
2018-08-24T20:03:57.865Z,8.60
2018-08-24T20:06:31.227Z,8.30
2018-08-24T20:09:04.528Z,8.50
2018-08-24T20:11:32.626Z,8.20
2018-08-24T20:14:00.824Z,8.47
2018-08-24T20:16:34.190Z,9.40
2018-08-24T20:19:02.055Z,8.40
2018-08-24T20:21:29.651Z,8.10
2018-08-24T20:23:58.771Z,8.90
2018-08-24T20:26:26.609Z,8.73
2018-08-24T20:28:54.280Z,7.43
2018-08-24T20:31:21.856Z,9.50
2018-08-24T20:33:49.677Z,7.93
2018-08-24T20:36:17.341Z,8.70
2018-08-24T20:38:44.947Z,8.10
2018-08-24T20:41:12.556Z,7.83
2018-08-24T20:43:40.584Z,8.37
2018-08-24T20:46:08.429Z,7.90
2018-08-24T20:48:36.047Z,8.50
2018-08-24T20:51:03.724Z,8.13
2018-08-24T20:53:31.895Z,8.50
2018-08-24T20:55:59.531Z,8.53
2018-08-24T20:58:27.244Z,7.80
2018-08-24T21:00:55.017Z,8.93
2018-08-24T21:03:22.772Z,8.10
2018-08-24T21:05:50.536Z,8.53
2018-08-24T21:08:18.208Z,9.07
2018-08-24T21:10:46.683Z,8.63
2018-08-24T21:13:14.361Z,9.27
2018-08-24T21:15:42.183Z,9.20
2018-08-24T21:18:09.784Z,8.07
2018-08-24T21:20:37.621Z,9.03
2018-08-24T21:23:05.617Z,8.53
2018-08-24T21:25:34.200Z,8.70
2018-08-24T21:28:01.933Z,9.43
2018-08-24T21:30:29.564Z,9.60
2018-08-24T21:32:58.052Z,9.83
2018-08-24T21:35:25.937Z,10.03
2018-08-24T21:37:54.197Z,10.33
2018-08-24T21:40:22.637Z,10.30
2018-08-24T21:42:50.356Z,9.47
2018-08-24T21:45:18.228Z,9.90
2018-08-24T21:47:46.129Z,10.13
2018-08-24T21:50:13.760Z,9.70
2018-08-24T21:52:41.508Z,9.93
2018-08-24T21:55:10.058Z,9.30
2018-08-24T21:57:37.847Z,10.63
2018-08-24T22:00:09.272Z,10.07
2018-08-24T22:02:37.059Z,10.20
2018-08-24T22:05:05.569Z,10.33
2018-08-24T22:07:33.127Z,10.63
2018-08-24T22:10:01.348Z,9.70
2018-08-24T22:12:28.963Z,10.03
2018-08-24T22:14:56.645Z,10.10
2018-08-24T22:17:24.193Z,10.73
2018-08-24T22:19:51.956Z,10.13
2018-08-24T22:22:19.729Z,10.10
2018-08-24T22:24:47.544Z,10.30
2018-08-24T22:27:15.248Z,9.20
2018-08-24T22:29:42.840Z,10.17
2018-08-24T22:32:10.469Z,9.60
2018-08-24T22:34:38.192Z,10.20
2018-08-24T22:37:06.003Z,10.50
2018-08-24T22:39:33.536Z,10.10
2018-08-24T22:42:01.142Z,9.87
2018-08-24T22:44:29.016Z,10.17
2018-08-24T22:46:56.658Z,9.57
2018-08-24T22:49:24.527Z,9.83
2018-08-24T22:51:52.291Z,9.87
2018-08-24T22:54:20.049Z,9.10
2018-08-24T22:56:47.832Z,10.10
2018-08-24T22:59:15.526Z,10.67
2018-08-24T23:01:43.132Z,11.60
2018-08-24T23:04:10.719Z,10.63
2018-08-24T23:06:38.289Z,10.00
2018-08-24T23:09:07.531Z,10.70
2018-08-24T23:11:35.284Z,11.00
2018-08-24T23:14:02.892Z,10.77
2018-08-24T23:16:30.564Z,10.97
2018-08-24T23:18:58.376Z,10.93
2018-08-24T23:21:26.115Z,10.93
2018-08-24T23:23:53.796Z,10.27
2018-08-24T23:26:21.431Z,11.03
2018-08-24T23:28:49.023Z,10.73
2018-08-24T23:31:16.546Z,10.93
2018-08-24T23:33:44.747Z,10.07
2018-08-24T23:36:12.659Z,10.97
2018-08-24T23:38:40.299Z,9.97
2018-08-24T23:41:07.977Z,11.03
2018-08-24T23:43:35.579Z,9.97
2018-08-24T23:46:03.307Z,10.47
2018-08-24T23:48:30.931Z,10.30
2018-08-24T23:50:58.777Z,10.00
2018-08-24T23:53:26.611Z,10.00
2018-08-24T23:55:54.719Z,10.87
2018-08-24T23:58:22.295Z,11.00
